Time;durP1;ratioP1;P1;durP2;ratioP2;P2;SDS_P1;SDS_P2;PMS_P1;PMS_P2;Temp;Humidity;BMP_temperature;BMP_pressure;BME280_temperature;BME280_humidity;BME280_pressure;Samples;Min_cycle;Max_cycle;Signal;HPM_P1;HPM_P2
2023/09/08 00:01:18;;;;;;;9.53;6.20;;;;;;;23.36;73.71;100406.66;5109444;28;20624;-59
2023/09/08 00:03:43;;;;;;;7.90;5.87;;;;;;;23.35;73.68;100405.84;5108224;28;20617;-60
2023/09/08 00:06:09;;;;;;;6.93;5.97;;;;;;;23.36;73.86;100413.25;5071530;28;20182;-59
2023/09/08 00:08:34;;;;;;;7.70;6.47;;;;;;;23.36;73.87;100415.31;5090485;28;20232;-59
2023/09/08 00:11:00;;;;;;;7.53;5.80;;;;;;;23.35;73.73;100410.78;5092435;28;20183;-59
2023/09/08 00:13:25;;;;;;;6.57;5.87;;;;;;;23.34;73.84;100412.84;5090242;28;20163;-59
2023/09/08 00:15:50;;;;;;;7.60;5.63;;;;;;;23.34;74.05;100412.03;5092665;28;20731;-59
2023/09/08 00:18:16;;;;;;;9.60;6.10;;;;;;;23.35;73.84;100405.03;5090766;28;20226;-60
2023/09/08 00:20:41;;;;;;;7.80;5.87;;;;;;;23.33;73.54;100408.31;5110185;28;20182;-60
2023/09/08 00:23:07;;;;;;;8.60;6.47;;;;;;;23.33;73.76;100408.31;5110409;28;20246;-59
2023/09/08 00:25:34;;;;;;;6.33;5.07;;;;;;;23.33;73.81;100408.31;5106733;28;20185;-59
2023/09/08 00:28:00;;;;;;;6.30;5.70;;;;;;;23.33;73.82;100407.50;5110598;28;20162;-60
2023/09/08 00:30:25;;;;;;;8.87;5.83;;;;;;;23.33;74.09;100411.19;5101892;28;20442;-60
2023/09/08 00:32:50;;;;;;;11.87;6.77;;;;;;;23.32;74.06;100412.44;5102254;28;20270;-60
2023/09/08 00:35:16;;;;;;;6.40;5.43;;;;;;;23.33;73.91;100411.19;5109044;28;20590;-59
2023/09/08 00:37:41;;;;;;;6.90;5.03;;;;;;;23.32;73.90;100405.84;5091498;28;20592;-60
2023/09/08 00:40:10;;;;;;;7.07;5.20;;;;;;;23.32;73.86;100405.84;5071489;28;20224;-59
2023/09/08 00:42:36;;;;;;;7.30;5.80;;;;;;;23.32;73.83;100412.44;5079260;28;20241;-60
2023/09/08 00:45:02;;;;;;;8.00;6.47;;;;;;;23.31;74.17;100410.78;5108346;28;20484;-60
2023/09/08 00:47:27;;;;;;;8.03;5.40;;;;;;;23.31;73.60;100405.03;5109128;28;20261;-60
2023/09/08 00:49:53;;;;;;;7.40;6.27;;;;;;;23.32;73.54;100397.19;5090964;28;20185;-60
2023/09/08 00:52:18;;;;;;;6.10;5.37;;;;;;;23.32;73.79;100405.84;5105884;28;20181;-60
2023/09/08 00:54:44;;;;;;;8.07;5.87;;;;;;;23.31;73.63;100405.03;5109390;28;20169;-59
2023/09/08 00:57:09;;;;;;;7.03;5.83;;;;;;;23.31;73.58;100404.19;5094626;28;21032;-60
2023/09/08 00:59:35;;;;;;;6.20;5.20;;;;;;;23.30;73.44;100396.78;5089444;28;20617;-59
2023/09/08 01:02:01;;;;;;;8.50;5.30;;;;;;;23.30;73.19;100402.56;5095335;28;20786;-63
2023/09/08 01:04:26;;;;;;;5.80;4.57;;;;;;;23.30;73.58;100406.28;5111173;28;20220;-63
2023/09/08 01:06:51;;;;;;;6.30;5.57;;;;;;;23.30;73.43;100406.28;5106695;28;20876;-63
2023/09/08 01:09:18;;;;;;;6.80;5.50;;;;;;;23.29;73.72;100404.59;5092067;22;22389;-79
2023/09/08 01:11:43;;;;;;;8.30;5.77;;;;;;;23.29;73.28;100400.91;5020739;28;20333;-77
2023/09/08 01:14:11;;;;;;;10.07;5.43;;;;;;;23.29;73.61;100400.91;5008898;28;20457;-81
2023/09/08 01:16:37;;;;;;;7.07;4.87;;;;;;;23.29;73.74;100398.84;5047495;28;20210;-80
2023/09/08 01:19:02;;;;;;;6.30;5.67;;;;;;;23.28;73.51;100394.31;5038399;28;20430;-82
2023/09/08 01:21:52;;;;;;;9.00;5.30;;;;;;;23.29;73.16;100393.06;5029913;28;20234;-81
2023/09/08 01:24:44;;;;;;;7.03;5.30;;;;;;;23.28;73.08;100394.31;5048127;28;20179;-80
2023/09/08 01:27:10;;;;;;;7.80;6.10;;;;;;;23.28;73.37;100400.06;5055088;28;20422;-81
2023/09/08 01:29:35;;;;;;;7.10;5.67;;;;;;;23.28;73.41;100387.75;5013922;28;20513;-81
2023/09/08 01:32:01;;;;;;;7.10;5.40;;;;;;;23.27;73.11;100392.66;5029865;28;20402;-80
2023/09/08 01:34:26;;;;;;;5.00;4.50;;;;;;;23.27;73.16;100398.44;5029589;28;20218;-81
2023/09/08 01:36:52;;;;;;;6.73;5.30;;;;;;;23.28;73.44;100399.28;5013257;28;20206;-80
2023/09/08 01:39:17;;;;;;;5.67;5.07;;;;;;;23.27;73.27;100398.44;5046336;28;20172;-81
2023/09/08 01:41:43;;;;;;;8.67;4.90;;;;;;;23.27;73.39;100401.31;5048188;28;20258;-80
2023/09/08 01:44:10;;;;;;;7.13;5.60;;;;;;;23.28;73.32;100405.03;5046202;28;20255;-80
2023/09/08 01:46:35;;;;;;;6.20;4.87;;;;;;;23.26;72.95;100390.19;5045789;28;20180;-80
2023/09/08 01:49:01;;;;;;;9.60;4.90;;;;;;;23.26;73.28;100396.78;5040616;28;20896;-81
2023/09/08 01:51:26;;;;;;;8.23;5.20;;;;;;;23.26;73.54;100398.84;5029231;28;20180;-80
2023/09/08 01:53:52;;;;;;;6.77;5.10;;;;;;;23.26;73.10;100396.78;5045562;28;20222;-81
2023/09/08 01:56:17;;;;;;;4.87;4.37;;;;;;;23.26;73.21;100393.06;5044994;28;20248;-80
2023/09/08 01:58:42;;;;;;;6.23;5.00;;;;;;;23.25;73.14;100395.16;5032275;28;20191;-81
2023/09/08 02:01:08;;;;;;;6.50;4.57;;;;;;;23.26;73.10;100393.06;5046055;28;20183;-82
2023/09/08 02:03:33;;;;;;;4.60;4.10;;;;;;;23.25;72.91;100397.19;5029434;28;20208;-80
2023/09/08 02:05:59;;;;;;;7.13;4.73;;;;;;;23.25;73.29;100400.09;5045382;28;20219;-81
2023/09/08 02:08:24;;;;;;;6.13;4.70;;;;;;;23.24;73.23;100396.38;5054562;28;20202;-82
2023/09/08 02:10:49;;;;;;;6.47;4.90;;;;;;;23.24;72.78;100398.44;5052254;28;20239;-79
2023/09/08 02:13:15;;;;;;;6.03;4.70;;;;;;;23.24;73.24;100399.25;5049546;28;20172;-81
2023/09/08 02:15:40;;;;;;;6.53;4.67;;;;;;;23.24;73.06;100389.78;5065967;28;20230;-81
2023/09/08 02:18:06;;;;;;;6.50;4.87;;;;;;;23.23;73.17;100394.72;5052714;28;20194;-81
2023/09/08 02:20:32;;;;;;;5.73;4.70;;;;;;;23.24;72.50;100405.00;5070192;28;20179;-81
2023/09/08 02:22:57;;;;;;;6.07;4.77;;;;;;;23.24;72.70;100398.44;5035980;28;21304;-80
2023/09/08 02:25:23;;;;;;;6.97;4.70;;;;;;;23.24;72.87;100393.47;5072466;28;20236;-80
2023/09/08 02:27:49;;;;;;;6.07;5.03;;;;;;;23.23;72.71;100396.81;5072751;28;20690;-74
2023/09/08 02:30:15;;;;;;;5.10;4.17;;;;;;;23.23;72.83;100405.44;5071759;28;20170;-80
2023/09/08 02:32:42;;;;;;;5.23;4.23;;;;;;;23.24;72.67;100401.31;5055047;28;20298;-79
2023/09/08 02:35:08;;;;;;;6.30;4.60;;;;;;;23.22;72.72;100404.59;5073292;28;20531;-80
2023/09/08 02:37:33;;;;;;;7.00;4.57;;;;;;;23.22;72.95;100407.50;5045971;28;20464;-81
2023/09/08 02:39:59;;;;;;;5.33;4.40;;;;;;;23.21;72.99;100408.72;5041881;28;20183;-81
2023/09/08 02:42:24;;;;;;;6.73;4.67;;;;;;;23.21;72.71;100402.97;5051540;28;20266;-81
2023/09/08 02:44:50;;;;;;;5.00;4.50;;;;;;;23.21;72.28;100411.59;5089453;28;20170;-75
2023/09/08 02:47:15;;;;;;;5.47;4.87;;;;;;;23.21;72.56;100411.59;5072825;28;20171;-81
2023/09/08 02:49:40;;;;;;;6.10;4.83;;;;;;;23.21;72.70;100413.66;5072318;28;20178;-81
2023/09/08 02:52:06;;;;;;;13.90;4.53;;;;;;;23.21;72.63;100408.72;5071086;28;20225;-81
2023/09/08 02:54:31;;;;;;;7.30;5.00;;;;;;;23.21;72.58;100417.38;5035826;28;20179;-80
2023/09/08 02:56:57;;;;;;;4.80;4.13;;;;;;;23.20;72.58;100417.78;5053346;28;20237;-80
2023/09/08 02:59:22;;;;;;;4.90;4.40;;;;;;;23.20;72.44;100415.72;5070399;28;20163;-78
2023/09/08 03:01:48;;;;;;;5.40;4.43;;;;;;;23.19;72.14;100419.81;5048735;28;20207;-80
2023/09/08 03:04:13;;;;;;;5.50;4.40;;;;;;;23.19;72.36;100422.69;5047592;28;20178;-79
2023/09/08 03:06:39;;;;;;;5.30;4.30;;;;;;;23.19;72.10;100422.69;5072705;28;20240;-81
2023/09/08 03:09:04;;;;;;;5.00;4.30;;;;;;;23.20;72.28;100420.66;5035219;28;20207;-80
2023/09/08 03:11:30;;;;;;;5.93;4.60;;;;;;;23.20;72.29;100417.78;5070063;28;20191;-81
2023/09/08 03:13:55;;;;;;;4.87;4.37;;;;;;;23.19;72.11;100425.56;5053640;28;20566;-79
2023/09/08 03:16:21;;;;;;;6.70;4.23;;;;;;;23.19;72.34;100422.69;5090128;28;20182;-74
2023/09/08 03:18:46;;;;;;;5.10;4.33;;;;;;;23.19;72.16;100430.53;5083424;28;20198;-79
2023/09/08 03:21:13;;;;;;;4.83;4.10;;;;;;;23.19;72.26;100425.56;5033873;28;20188;-81
2023/09/08 03:23:39;;;;;;;5.40;4.40;;;;;;;23.18;72.00;100423.94;5059973;28;20280;-81
2023/09/08 03:26:05;;;;;;;5.20;4.03;;;;;;;23.19;71.99;100430.53;5051613;28;20409;-81
2023/09/08 03:28:31;;;;;;;6.07;4.77;;;;;;;23.19;72.06;100433.41;5068623;28;20433;-81
2023/09/08 03:30:57;;;;;;;6.20;4.70;;;;;;;23.18;71.58;100426.81;5050996;28;20164;-81
2023/09/08 03:33:22;;;;;;;7.43;4.20;;;;;;;23.17;71.92;100436.66;5065105;28;20492;-79
2023/09/08 03:35:48;;;;;;;5.20;4.43;;;;;;;23.17;71.75;100433.78;5063325;28;20171;-80
2023/09/08 03:38:13;;;;;;;6.17;4.67;;;;;;;23.17;71.95;100430.91;5049648;28;20649;-81
2023/09/08 03:40:38;;;;;;;5.20;4.40;;;;;;;23.17;71.99;100433.78;5069537;28;20221;-81
2023/09/08 03:43:04;;;;;;;5.33;4.20;;;;;;;23.16;71.86;100426.38;5067249;28;20202;-81
2023/09/08 03:45:30;;;;;;;5.70;4.60;;;;;;;23.16;71.92;100432.16;5052849;28;20187;-81
2023/09/08 03:47:55;;;;;;;6.57;4.27;;;;;;;23.16;71.96;100432.16;5050631;28;20552;-80
2023/09/08 03:50:20;;;;;;;5.47;4.67;;;;;;;23.16;71.83;100437.91;5051205;28;20179;-80
2023/09/08 03:52:46;;;;;;;5.70;4.30;;;;;;;23.16;71.96;100437.06;5033393;28;20187;-80
2023/09/08 03:55:11;;;;;;;6.30;4.57;;;;;;;23.16;71.73;100439.94;5031030;28;21042;-80
2023/09/08 03:57:37;;;;;;;5.53;4.20;;;;;;;23.15;71.74;100430.50;5031453;28;20183;-81
2023/09/08 04:00:05;;;;;;;5.10;4.23;;;;;;;23.15;71.68;100439.16;5050217;28;20190;-81
2023/09/08 04:02:30;;;;;;;8.83;4.83;;;;;;;23.14;72.03;100439.53;5052629;28;20207;-81
2023/09/08 04:04:55;;;;;;;6.00;4.80;;;;;;;23.14;71.63;100440.34;5050175;28;20440;-80
2023/09/08 04:07:21;;;;;;;6.60;4.47;;;;;;;23.14;71.84;100439.53;5033329;28;20230;-81
2023/09/08 04:09:46;;;;;;;10.33;4.60;;;;;;;23.13;71.39;100444.47;5037318;28;20234;-80
2023/09/08 04:12:12;;;;;;;5.53;4.10;;;;;;;23.13;71.68;100444.47;5067429;28;20171;-80
2023/09/08 04:14:37;;;;;;;5.90;4.60;;;;;;;23.13;71.36;100438.72;5068317;28;20197;-79
2023/09/08 04:17:03;;;;;;;5.20;4.13;;;;;;;23.14;71.47;100445.31;5051278;28;20183;-79
2023/09/08 04:19:28;;;;;;;7.20;4.60;;;;;;;23.12;71.23;100442.84;5058618;28;20191;-78
2023/09/08 04:21:54;;;;;;;6.50;4.67;;;;;;;23.13;71.48;100443.66;5050672;28;20218;-80
2023/09/08 04:24:20;;;;;;;7.00;4.50;;;;;;;23.12;71.28;100448.59;5046451;28;20207;-79
2023/09/08 04:26:45;;;;;;;4.90;4.00;;;;;;;23.12;71.65;100445.72;5048997;28;20253;-80
2023/09/08 04:29:11;;;;;;;6.40;4.53;;;;;;;23.12;71.51;100442.84;5046804;28;20179;-80
2023/09/08 04:31:36;;;;;;;5.73;4.60;;;;;;;23.11;71.32;100443.22;5069120;28;20190;-80
2023/09/08 04:34:01;;;;;;;6.27;4.10;;;;;;;23.12;71.41;100442.00;5066677;28;20198;-80
2023/09/08 04:36:27;;;;;;;8.73;4.67;;;;;;;23.11;71.53;100441.19;5069189;28;20186;-80
2023/09/08 04:38:52;;;;;;;7.23;4.30;;;;;;;23.11;71.24;100449.84;5066702;28;20186;-79
2023/09/08 04:41:18;;;;;;;9.27;4.47;;;;;;;23.11;71.05;100446.94;5067585;28;20191;-81
2023/09/08 04:43:43;;;;;;;6.80;4.70;;;;;;;23.10;71.20;100445.31;5052041;28;20217;-80
2023/09/08 04:46:08;;;;;;;6.90;4.03;;;;;;;23.11;71.10;100449.84;5068018;28;20168;-81
2023/09/08 04:48:34;;;;;;;8.40;4.33;;;;;;;23.11;71.00;100449.00;5048977;28;20210;-80
2023/09/08 04:51:00;;;;;;;6.17;4.20;;;;;;;23.09;71.25;100455.16;5035932;28;20182;-81
2023/09/08 04:53:25;;;;;;;9.23;4.20;;;;;;;23.09;71.27;100443.63;5050186;28;20229;-80
2023/09/08 04:55:51;;;;;;;8.60;4.90;;;;;;;23.08;70.96;100459.28;5048346;28;20187;-81
2023/09/08 04:58:16;;;;;;;6.73;4.60;;;;;;;23.09;71.47;100454.34;5045740;28;20198;-78
2023/09/08 05:00:42;;;;;;;8.03;4.40;;;;;;;23.08;70.86;100450.63;5049927;28;20220;-79
2023/09/08 05:03:07;;;;;;;5.50;4.33;;;;;;;23.08;70.78;100453.50;5067840;28;20202;-80
2023/09/08 05:05:33;;;;;;;7.70;5.33;;;;;;;23.06;70.92;100456.00;5082693;28;20247;-81
2023/09/08 05:07:58;;;;;;;7.43;4.67;;;;;;;23.07;71.25;100457.63;5051459;28;20191;-80
2023/09/08 05:10:23;;;;;;;5.17;4.20;;;;;;;23.07;71.13;100456.78;5049935;28;20238;-80
2023/09/08 05:12:49;;;;;;;6.17;4.13;;;;;;;23.08;71.09;100465.03;5049899;28;20213;-81
2023/09/08 05:15:16;;;;;;;5.93;3.93;;;;;;;23.07;70.79;100463.41;5035439;28;20198;-80
2023/09/08 05:17:42;;;;;;;5.93;4.27;;;;;;;23.06;70.82;100464.63;5050177;28;20178;-79
2023/09/08 05:20:07;;;;;;;6.50;3.73;;;;;;;23.07;70.49;100465.44;5049116;28;20467;-80
2023/09/08 05:22:33;;;;;;;5.07;4.07;;;;;;;23.05;70.78;100465.88;5095092;28;20207;-81
2023/09/08 05:24:58;;;;;;;7.93;4.87;;;;;;;23.06;70.59;100470.38;5049654;28;20613;-80
2023/09/08 05:27:24;;;;;;;6.63;4.40;;;;;;;23.06;70.33;100467.50;5049994;28;20277;-80
2023/09/08 05:29:49;;;;;;;9.70;5.00;;;;;;;23.05;70.75;100465.88;5052608;28;20175;-78
2023/09/08 05:32:15;;;;;;;6.90;3.90;;;;;;;23.05;70.64;100465.88;5029973;28;20238;-80
2023/09/08 05:34:40;;;;;;;10.77;4.50;;;;;;;23.05;70.70;100468.75;5046161;28;20633;-79
2023/09/08 05:37:06;;;;;;;6.23;4.60;;;;;;;23.04;70.43;100470.00;5047516;28;20187;-81
2023/09/08 05:39:31;;;;;;;9.67;4.80;;;;;;;23.05;70.30;100468.75;5046292;28;20191;-79
2023/09/08 05:41:57;;;;;;;7.37;4.13;;;;;;;23.05;70.58;100470.78;5051562;28;20209;-81
2023/09/08 05:44:22;;;;;;;5.83;4.03;;;;;;;23.05;70.27;100474.50;5033464;28;20183;-81
2023/09/08 05:46:48;;;;;;;6.47;4.30;;;;;;;23.03;70.51;100468.31;5032940;28;20183;-81
2023/09/08 05:49:14;;;;;;;5.53;4.13;;;;;;;23.04;70.05;100475.75;5051956;28;20183;-80
2023/09/08 05:51:39;;;;;;;4.90;3.73;;;;;;;23.04;70.25;100475.75;5050156;28;20178;-80
2023/09/08 05:54:05;;;;;;;6.10;4.40;;;;;;;23.04;70.28;100487.28;5050669;28;20442;-81
2023/09/08 05:56:33;;;;;;;6.30;4.30;;;;;;;23.04;70.20;100493.03;5069421;28;20187;-81
2023/09/08 05:59:01;;;;;;;6.00;4.60;;;;;;;23.03;70.12;100491.34;5070236;28;20204;-80
2023/09/08 06:01:26;;;;;;;7.30;4.60;;;;;;;23.03;70.00;100502.06;5038478;28;20505;-81
2023/09/08 06:03:52;;;;;;;7.37;4.43;;;;;;;23.03;70.06;100494.22;5037033;28;20931;-81
2023/09/08 06:06:17;;;;;;;6.03;4.27;;;;;;;23.03;70.10;100502.06;5037030;28;20186;-81
2023/09/08 06:08:42;;;;;;;6.03;4.63;;;;;;;23.02;70.28;100492.59;5036633;28;20544;-81
2023/09/08 06:11:08;;;;;;;5.53;4.00;;;;;;;23.02;70.34;100489.72;5069033;28;20681;-80
2023/09/08 06:13:33;;;;;;;6.60;3.97;;;;;;;23.02;69.98;100489.72;5036228;28;20195;-80
2023/09/08 06:15:59;;;;;;;5.43;3.97;;;;;;;23.03;70.02;100490.56;5054082;28;20187;-81
2023/09/08 06:18:27;;;;;;;5.70;4.57;;;;;;;23.03;70.29;100491.34;5055108;28;20190;-78
2023/09/08 06:20:52;;;;;;;7.87;4.90;;;;;;;23.02;70.55;100492.59;5071229;28;20171;-80
2023/09/08 06:23:20;;;;;;;7.23;4.40;;;;;;;23.01;70.00;100499.59;5052742;28;20526;-81
2023/09/08 06:25:45;;;;;;;6.27;4.77;;;;;;;23.02;70.02;100495.47;5052808;28;20191;-81
2023/09/08 06:28:10;;;;;;;7.60;4.70;;;;;;;23.01;70.25;100493.81;5051449;28;20426;-80
2023/09/08 06:30:36;;;;;;;6.03;4.53;;;;;;;23.00;69.93;100492.19;5034429;28;20180;-79
2023/09/08 06:33:01;;;;;;;7.97;5.13;;;;;;;23.01;70.13;100493.81;5018188;28;20196;-78
2023/09/08 06:35:27;;;;;;;6.20;4.20;;;;;;;23.02;70.23;100489.72;5035814;28;20192;-79
2023/09/08 06:37:52;;;;;;;6.93;4.97;;;;;;;23.02;70.01;100492.59;5037467;28;20556;-81
2023/09/08 06:40:18;;;;;;;6.30;4.47;;;;;;;23.02;70.17;100497.53;5077434;28;20186;-81
2023/09/08 06:42:43;;;;;;;5.73;4.60;;;;;;;23.02;70.36;100498.34;5069491;28;20195;-80
2023/09/08 06:45:09;;;;;;;6.60;5.33;;;;;;;23.02;69.84;100501.22;5054102;28;20191;-81
2023/09/08 06:47:34;;;;;;;8.67;4.83;;;;;;;23.01;70.37;100499.59;5052641;28;20229;-80
2023/09/08 06:49:59;;;;;;;7.00;4.70;;;;;;;23.03;70.14;100499.19;5039424;28;20732;-81
2023/09/08 06:52:25;;;;;;;8.17;5.17;;;;;;;23.01;70.39;100493.81;5072403;28;20571;-80
2023/09/08 06:54:50;;;;;;;9.70;5.10;;;;;;;23.01;70.15;100495.88;5056867;28;20871;-79
2023/09/08 06:57:18;;;;;;;7.17;5.00;;;;;;;23.02;70.48;100501.22;5052435;28;20618;-80
2023/09/08 06:59:43;;;;;;;9.67;4.93;;;;;;;23.02;70.42;100512.75;5078437;28;20193;-79
2023/09/08 07:02:09;;;;;;;7.70;5.13;;;;;;;23.02;70.10;100509.06;5036519;28;20465;-79
2023/09/08 07:04:34;;;;;;;7.80;4.73;;;;;;;23.02;69.90;100507.00;5036150;28;20216;-80
2023/09/08 07:07:03;;;;;;;6.70;4.80;;;;;;;23.00;69.92;100512.34;5069550;28;20187;-81
2023/09/08 07:09:29;;;;;;;5.50;4.20;;;;;;;23.02;70.30;100503.31;5046578;28;20707;-78
2023/09/08 07:11:54;;;;;;;8.20;4.93;;;;;;;23.01;70.44;100511.09;5043116;28;20429;-78
2023/09/08 07:14:20;;;;;;;7.37;4.87;;;;;;;23.02;70.20;100514.81;5029268;28;20179;-80
2023/09/08 07:16:45;;;;;;;6.70;4.30;;;;;;;23.01;70.29;100511.09;5043719;28;20194;-81
2023/09/08 07:19:10;;;;;;;6.60;5.10;;;;;;;23.01;70.26;100511.09;5090463;28;20170;-80
2023/09/08 07:21:36;;;;;;;7.70;5.13;;;;;;;23.01;70.67;100505.34;5071893;28;20518;-82
2023/09/08 07:24:01;;;;;;;6.60;4.77;;;;;;;23.01;70.50;100511.09;5058296;28;20195;-79
2023/09/08 07:26:27;;;;;;;7.27;5.13;;;;;;;23.02;70.52;100509.88;5041282;28;20197;-81
2023/09/08 07:28:52;;;;;;;7.77;5.27;;;;;;;23.03;70.68;100507.81;5053798;28;20186;-81
2023/09/08 07:31:18;;;;;;;6.57;4.70;;;;;;;23.02;70.71;100509.88;5030758;28;20857;-81
2023/09/08 07:33:43;;;;;;;8.10;4.80;;;;;;;23.02;70.61;100509.88;5031685;28;20172;-80
2023/09/08 07:36:09;;;;;;;7.67;5.03;;;;;;;23.02;70.84;100512.75;5031867;28;20198;-80
2023/09/08 07:38:34;;;;;;;6.80;5.10;;;;;;;23.03;70.69;100514.38;5031350;28;20168;-80
2023/09/08 07:41:01;;;;;;;6.30;5.37;;;;;;;23.04;70.82;100513.19;5064675;28;20207;-81
2023/09/08 07:43:27;;;;;;;7.50;5.20;;;;;;;23.04;70.91;100506.59;5051706;28;20191;-80
2023/09/08 07:45:52;;;;;;;6.40;4.50;;;;;;;23.03;70.51;100511.50;5051290;28;20539;-80
2023/09/08 07:48:18;;;;;;;9.83;6.03;;;;;;;23.04;70.73;100515.22;5053615;28;20289;-81
2023/09/08 07:50:43;;;;;;;5.97;5.23;;;;;;;23.04;70.77;100513.19;5051573;28;20163;-80
2023/09/08 07:53:09;;;;;;;5.17;4.67;;;;;;;23.04;70.59;100515.22;5069109;28;20179;-82
2023/09/08 07:55:34;;;;;;;6.50;5.00;;;;;;;23.04;70.71;100518.94;5050437;28;20178;-80
2023/09/08 07:58:01;;;;;;;7.87;5.10;;;;;;;23.04;71.14;100509.47;5053551;28;20853;-81
2023/09/08 08:00:27;;;;;;;8.27;5.50;;;;;;;23.04;71.27;100509.47;5067481;28;20870;-80
2023/09/08 08:02:54;;;;;;;6.87;5.40;;;;;;;23.04;71.04;100509.47;5068986;28;20511;-80
2023/09/08 08:05:19;;;;;;;10.27;5.73;;;;;;;23.04;70.83;100510.31;5050141;28;20447;-80
2023/09/08 08:07:45;;;;;;;8.20;5.90;;;;;;;23.05;71.10;100503.31;5051252;28;20448;-81
2023/09/08 08:10:11;;;;;;;9.43;6.00;;;;;;;23.05;71.11;100505.34;5069352;28;20256;-78
2023/09/08 08:12:37;;;;;;;6.90;4.80;;;;;;;23.03;71.05;100502.88;5050579;28;20257;-81
2023/09/08 08:15:04;;;;;;;7.70;5.70;;;;;;;23.05;71.17;100505.34;5066904;28;20414;-80
2023/09/08 08:17:30;;;;;;;7.00;5.60;;;;;;;23.03;71.33;100499.19;5033390;28;20557;-80
2023/09/08 08:19:58;;;;;;;7.17;5.67;;;;;;;23.03;71.33;100497.13;5031081;28;20426;-81
2023/09/08 08:22:24;;;;;;;8.23;6.40;;;;;;;23.04;71.45;100506.59;5047893;28;20489;-76
2023/09/08 08:24:49;;;;;;;6.60;5.20;;;;;;;23.04;71.34;100509.47;5080368;28;20460;-78
2023/09/08 08:27:14;;;;;;;8.63;6.23;;;;;;;23.05;71.72;100509.06;5049171;28;20171;-79
2023/09/08 08:29:40;;;;;;;6.80;5.70;;;;;;;23.04;71.54;100498.78;5052459;28;20201;-80
2023/09/08 08:32:05;;;;;;;9.10;6.03;;;;;;;23.05;71.70;100499.59;5050574;28;20178;-81
2023/09/08 08:34:31;;;;;;;6.43;5.57;;;;;;;23.05;71.69;100505.34;5033218;28;20260;-80
2023/09/08 08:36:56;;;;;;;8.60;6.23;;;;;;;23.05;71.58;100503.31;5030423;28;20184;-81
2023/09/08 08:39:22;;;;;;;7.13;5.83;;;;;;;23.04;71.75;100498.78;5034760;28;20633;-81
2023/09/08 08:41:47;;;;;;;8.10;6.50;;;;;;;23.05;71.99;100506.19;5051113;28;20644;-81
2023/09/08 08:44:13;;;;;;;10.13;5.90;;;;;;;23.06;71.65;100496.31;5070374;28;20173;-81
2023/09/08 08:46:38;;;;;;;12.40;6.50;;;;;;;23.05;71.75;100499.59;5076271;28;20273;-81
2023/09/08 08:49:04;;;;;;;6.43;5.73;;;;;;;23.06;72.20;100499.19;5050288;28;20220;-81
2023/09/08 08:51:32;;;;;;;9.30;6.50;;;;;;;23.06;72.38;100499.19;5048846;28;20203;-81
2023/09/08 08:54:00;;;;;;;8.77;5.90;;;;;;;23.07;72.97;100502.88;5049698;28;20274;-80
2023/09/08 08:56:25;;;;;;;11.43;6.80;;;;;;;23.07;73.03;100502.88;5044754;28;20459;-80
2023/09/08 08:58:51;;;;;;;10.93;7.10;;;;;;;23.07;72.78;100497.97;5033058;28;20456;-73
2023/09/08 09:01:18;;;;;;;9.93;7.10;;;;;;;23.07;72.72;100497.97;5065708;28;20176;-73
2023/09/08 09:03:44;;;;;;;9.80;7.03;;;;;;;23.09;72.64;100504.13;5034047;28;21069;-74
2023/09/08 09:06:10;;;;;;;8.33;6.30;;;;;;;23.11;73.20;100492.19;5047294;28;20437;-74
2023/09/08 09:08:37;;;;;;;10.27;7.13;;;;;;;23.11;73.17;100489.31;5043468;28;20421;-74
2023/09/08 09:11:02;;;;;;;8.50;7.57;;;;;;;23.11;74.12;100495.91;5049155;28;20231;-74
2023/09/08 09:13:27;;;;;;;9.50;7.30;;;;;;;23.12;74.39;100494.69;5047842;28;20441;-74
2023/09/08 09:15:57;;;;;;;13.83;8.20;;;;;;;23.14;74.38;100497.97;5048735;28;20552;-74
2023/09/08 09:18:22;;;;;;;12.60;8.67;;;;;;;23.15;74.44;100496.75;5030021;28;20271;-74
2023/09/08 09:20:55;;;;;;;13.03;8.50;;;;;;;23.16;74.68;100498.41;5058509;28;20429;-74
2023/09/08 09:23:31;;;;;;;10.43;7.67;;;;;;;23.15;74.97;100487.28;5049923;28;20217;-74
2023/09/08 09:25:57;;;;;;;11.40;7.90;;;;;;;23.17;75.14;100487.69;5043019;28;20512;-74
2023/09/08 09:28:22;;;;;;;9.73;8.27;;;;;;;23.16;75.26;100484.00;5038394;28;21126;-74
2023/09/08 09:30:49;;;;;;;10.60;9.10;;;;;;;23.17;74.57;100491.41;5072249;28;20187;-74
2023/09/08 09:33:15;;;;;;;11.30;8.93;;;;;;;23.18;75.22;100492.25;5051073;28;20470;-74
2023/09/08 09:35:40;;;;;;;10.90;9.13;;;;;;;23.22;75.46;100485.28;5052898;28;20442;-74
2023/09/08 09:38:07;;;;;;;11.97;9.20;;;;;;;23.22;75.55;100488.16;5070117;28;20202;-74
2023/09/08 09:40:32;;;;;;;12.33;9.47;;;;;;;23.25;76.21;100492.28;5028832;28;20210;-74
2023/09/08 09:42:58;;;;;;;10.80;9.00;;;;;;;23.26;75.92;100483.22;5061225;28;20993;-74
2023/09/08 09:45:27;;;;;;;13.23;9.80;;;;;;;23.23;75.88;100484.03;5073722;28;20569;-74
2023/09/08 09:47:52;;;;;;;12.90;8.60;;;;;;;23.25;75.71;100484.47;5086347;28;20186;-74
2023/09/08 09:50:40;;;;;;;13.00;8.93;;;;;;;23.26;75.87;100488.97;5078598;28;20428;-74
2023/09/08 09:53:12;;;;;;;13.17;9.33;;;;;;;23.26;75.92;100477.47;5053585;28;20175;-74
2023/09/08 09:55:39;;;;;;;10.97;9.30;;;;;;;23.26;75.92;100479.50;5033324;28;20414;-74
2023/09/08 09:58:04;;;;;;;13.97;9.27;;;;;;;23.24;76.10;100477.03;5067830;28;21118;-74
2023/09/08 10:00:30;;;;;;;10.90;8.50;;;;;;;23.26;76.31;100476.63;5033623;28;20492;-74
2023/09/08 10:02:56;;;;;;;12.40;9.60;;;;;;;23.25;76.38;100474.97;5016576;28;20654;-74
2023/09/08 10:05:21;;;;;;;11.67;8.30;;;;;;;23.23;76.15;100466.75;5050400;28;20183;-74
2023/09/08 10:07:50;;;;;;;14.30;8.90;;;;;;;23.27;75.73;100467.59;5050943;28;20623;-74
2023/09/08 10:10:16;;;;;;;13.40;9.70;;;;;;;23.26;76.00;100465.94;5053114;28;20679;-74
2023/09/08 10:12:45;;;;;;;11.00;8.67;;;;;;;23.26;76.08;100470.88;5052720;28;20409;-74
2023/09/08 10:15:11;;;;;;;11.70;7.57;;;;;;;23.26;75.95;100474.59;5052683;28;20206;-74
2023/09/08 10:17:36;;;;;;;18.63;9.60;;;;;;;23.31;75.94;100473.34;5088126;28;20428;-74
2023/09/08 10:20:10;;;;;;;12.20;8.73;;;;;;;23.30;75.35;100466.78;5056269;28;20186;-75
2023/09/08 10:22:36;;;;;;;12.47;9.00;;;;;;;23.29;76.33;100465.09;5052897;28;20241;-74
2023/09/08 10:25:03;;;;;;;10.10;9.00;;;;;;;23.30;76.21;100472.53;5052522;28;20420;-74
2023/09/08 10:27:29;;;;;;;13.00;9.30;;;;;;;23.30;75.65;100475.41;5053177;28;20178;-75
2023/09/08 10:29:54;;;;;;;15.20;9.87;;;;;;;23.31;76.02;100468.41;5043685;28;21310;-74
2023/09/08 10:32:20;;;;;;;9.97;8.63;;;;;;;23.30;76.49;100463.91;5016535;28;20261;-74
2023/09/08 10:34:45;;;;;;;19.83;9.23;;;;;;;23.28;76.57;100462.66;5049483;28;20237;-75
2023/09/08 10:37:25;;;;;;;12.23;9.07;;;;;;;23.29;75.97;100458.53;5050373;28;20177;-74
2023/09/08 10:39:51;;;;;;;11.13;8.47;;;;;;;23.29;76.32;100459.34;5052610;28;20196;-74
2023/09/08 10:42:17;;;;;;;13.33;9.73;;;;;;;23.33;75.95;100460.16;5051419;28;20448;-75
2023/09/08 10:44:49;;;;;;;12.47;8.90;;;;;;;23.37;75.45;100455.25;5058253;28;20179;-75
2023/09/08 10:47:24;;;;;;;14.87;8.60;;;;;;;23.37;75.83;100449.47;5056808;28;20183;-74
2023/09/08 10:49:53;;;;;;;12.70;8.60;;;;;;;23.35;76.04;100454.00;5063397;28;20509;-74
2023/09/08 10:52:20;;;;;;;10.80;9.37;;;;;;;23.34;75.95;100453.16;5049017;28;20441;-74
2023/09/08 10:54:52;;;;;;;13.20;8.90;;;;;;;23.32;75.96;100449.88;5038676;28;20496;-74
2023/09/08 10:57:20;;;;;;;11.60;9.57;;;;;;;23.36;75.57;100441.25;5038790;28;20510;-74
2023/09/08 10:59:56;;;;;;;14.97;9.27;;;;;;;23.41;75.31;100437.94;5066246;28;20472;-74
2023/09/08 11:02:41;;;;;;;19.63;9.37;;;;;;;23.39;75.42;100443.31;5028462;28;20514;-74
2023/09/08 11:05:14;;;;;;;12.80;9.03;;;;;;;23.38;75.90;100438.78;5038520;28;20968;-74
2023/09/08 11:07:40;;;;;;;12.50;9.37;;;;;;;23.37;75.80;100437.94;5033968;28;20814;-75
2023/09/08 11:10:06;;;;;;;14.23;9.67;;;;;;;23.39;75.70;100435.47;5078942;28;20476;-74
2023/09/08 11:12:32;;;;;;;12.03;8.10;;;;;;;23.41;75.71;100440.84;5064194;28;20535;-74
2023/09/08 11:15:00;;;;;;;10.93;9.03;;;;;;;23.40;75.80;100434.25;5054869;28;20435;-74
2023/09/08 11:17:30;;;;;;;12.37;8.20;;;;;;;23.43;75.76;100435.50;5061243;28;20235;-74
2023/09/08 11:19:55;;;;;;;10.30;8.60;;;;;;;23.39;75.74;100441.25;5063275;28;20432;-74